EGCN/DSA METAR and TAF weather

Enter ICAO airport designator
Station Type Date Time Source
EGCN METAR 2020/07/03 14:20 UTC NOAA

EGCN 031420Z 21024KT 9999 SCT023 BKN028 17/12 Q1010


Station Type Date Time Source
EGCN Decoded METAR 2020/07/03 14:20 UTC NOAA

Station name not available
Jul 03, 2020 - 10:20 AM EDT / 2020.07.03 1420 UTC
Wind: from the SSW (210 degrees) at 28 MPH (24 KT):0
Visibility: greater than 7 mile(s):0
Sky conditions: mostly cloudy
Temperature: 62 F (17 C)
Dew Point: 53 F (12 C)
Relative Humidity: 72%
Pressure (altimeter): 29.83 in. Hg (1010 hPa)
ob: EGCN 031420Z 21024KT 9999 SCT023 BKN028 17/12 Q1010
cycle: 14

Station Type Date Time Source
EGCN TAF 2020/07/03 12:00 UTC NOAA

TAF EGCN 031059Z 0312/0412 22012KT 9999 SCT040
TEMPO 0312/0412 8000 -RA PROB40
TEMPO 0312/0320 23015G25KT RA BKN012
BECMG 0320/0323 BKN012 PROB30
TEMPO 0401/0408 4000 RADZ BKN008
BECMG 0409/0412 BKN020

Example: see airport list